Time;durP1;ratioP1;P1;durP2;ratioP2;P2;SDS_P1;SDS_P2;PMS_P1;PMS_P2;Temp;Humidity;BMP_temperature;BMP_pressure;BME280_temperature;BME280_humidity;BME280_pressure;Samples;Min_cycle;Max_cycle;Signal;HPM_P1;HPM_P2
2022/07/13 00:02:10;;;;;;;8.98;3.33;;;26.00;99.90;;;;;;5053497;28;20021;-75
2022/07/13 00:04:36;;;;;;;11.35;3.78;;;26.00;99.90;;;;;;5054624;28;20029;-75
2022/07/13 00:07:02;;;;;;;17.23;4.38;;;25.90;99.90;;;;;;5054577;28;20021;-75
2022/07/13 00:09:28;;;;;;;7.78;3.67;;;26.00;99.90;;;;;;5054332;28;20025;-75
2022/07/13 00:11:53;;;;;;;6.70;3.83;;;26.20;99.80;;;;;;5054581;28;20083;-75
2022/07/13 00:14:19;;;;;;;9.52;4.03;;;26.20;99.90;;;;;;5054150;28;20063;-75
2022/07/13 00:16:45;;;;;;;6.80;3.65;;;26.10;99.90;;;;;;5054619;28;20025;-75
2022/07/13 00:19:11;;;;;;;16.65;3.70;;;25.90;99.90;;;;;;5054516;28;20029;-75
2022/07/13 00:21:37;;;;;;;10.70;3.85;;;25.90;99.90;;;;;;5053990;28;20484;-75
2022/07/13 00:24:03;;;;;;;15.80;3.95;;;25.80;99.90;;;;;;5054332;28;20110;-75
2022/07/13 00:26:28;;;;;;;14.50;4.40;;;25.60;99.90;;;;;;5054209;28;20036;-75
2022/07/13 00:28:54;;;;;;;5.90;3.30;;;25.60;99.90;;;;;;5033114;28;20060;-75
2022/07/13 00:31:20;;;;;;;7.50;3.97;;;25.30;99.90;;;;;;5045029;28;20025;-75
2022/07/13 00:33:46;;;;;;;11.32;3.75;;;25.20;99.90;;;;;;5052744;28;20024;-75
2022/07/13 00:36:12;;;;;;;9.15;3.60;;;25.10;99.90;;;;;;5053867;28;20091;-75
2022/07/13 00:38:37;;;;;;;13.18;3.53;;;25.00;99.90;;;;;;5052919;28;20017;-74
2022/07/13 00:41:06;;;;;;;11.73;3.72;;;25.10;99.90;;;;;;5053013;28;20052;-75
2022/07/13 00:43:32;;;;;;;10.07;3.25;;;25.20;99.90;;;;;;5054014;28;20380;-75
2022/07/13 00:45:58;;;;;;;6.57;3.83;;;25.10;99.90;;;;;;5052832;28;20037;-74
2022/07/13 00:48:25;;;;;;;11.90;3.78;;;25.10;99.90;;;;;;5052745;28;20060;-75
2022/07/13 00:50:51;;;;;;;10.30;3.60;;;25.10;99.80;;;;;;5051530;28;20362;-75
2022/07/13 00:53:18;;;;;;;11.05;4.28;;;25.20;99.60;;;;;;5053586;28;20032;-75
2022/07/13 00:55:45;;;;;;;10.48;3.83;;;25.20;99.40;;;;;;5057161;28;20021;-75
2022/07/13 00:58:11;;;;;;;12.40;3.97;;;25.20;99.40;;;;;;5066701;28;20043;-75
2022/07/13 01:00:37;;;;;;;13.13;4.25;;;25.10;99.40;;;;;;5061798;28;20029;-75
2022/07/13 01:03:03;;;;;;;11.23;4.25;;;25.00;99.30;;;;;;5070129;28;20020;-75
2022/07/13 01:05:30;;;;;;;11.80;3.83;;;24.90;99.30;;;;;;5072182;28;20040;-75
2022/07/13 01:07:56;;;;;;;5.60;3.40;;;24.80;99.50;;;;;;5070360;28;20357;-75
2022/07/13 01:10:22;;;;;;;9.90;3.53;;;24.80;99.80;;;;;;5059946;28;20427;-75
2022/07/13 01:12:48;;;;;;;6.45;3.08;;;24.80;99.60;;;;;;5055590;28;20107;-75
2022/07/13 01:15:15;;;;;;;9.40;3.00;;;24.70;99.00;;;;;;5073356;28;20056;-75
2022/07/13 01:17:41;;;;;;;7.18;3.40;;;24.70;98.90;;;;;;5071924;28;20025;-75
2022/07/13 01:20:09;;;;;;;7.00;3.03;;;24.80;98.70;;;;;;5071687;28;20028;-75
2022/07/13 01:22:51;;;;;;;5.25;3.45;;;24.60;98.30;;;;;;5073299;28;20033;-75
2022/07/13 01:25:18;;;;;;;5.18;2.85;;;24.90;98.10;;;;;;5067385;28;20484;-75
2022/07/13 01:27:46;;;;;;;5.30;2.85;;;24.90;97.90;;;;;;5063351;28;20020;-75
2022/07/13 01:30:13;;;;;;;7.18;3.30;;;25.00;97.50;;;;;;5072965;28;20040;-75
2022/07/13 01:32:47;;;;;;;9.82;2.70;;;24.90;97.10;;;;;;5071819;28;20016;-75
2022/07/13 01:35:15;;;;;;;6.20;3.05;;;24.90;97.50;;;;;;5072847;28;20469;-75
2022/07/13 01:37:42;;;;;;;6.38;3.00;;;24.90;97.50;;;;;;5072909;28;20484;-75
2022/07/13 01:40:11;;;;;;;7.85;2.80;;;25.00;97.30;;;;;;5071738;28;20142;-75
2022/07/13 01:42:45;;;;;;;4.57;2.58;;;25.00;97.30;;;;;;5071620;28;20138;-75
2022/07/13 01:45:13;;;;;;;4.68;2.78;;;25.10;97.00;;;;;;5071708;28;20044;-75
2022/07/13 01:47:40;;;;;;;10.48;2.65;;;25.10;97.10;;;;;;5072606;28;20369;-75
2022/07/13 01:50:07;;;;;;;8.10;3.10;;;25.00;97.10;;;;;;5072859;28;20052;-77
2022/07/13 01:52:34;;;;;;;11.48;3.00;;;25.00;97.20;;;;;;5071551;28;20404;-76
2022/07/13 01:54:59;;;;;;;6.13;2.60;;;25.00;97.30;;;;;;5072935;28;20469;-76
2022/07/13 01:57:25;;;;;;;7.10;3.17;;;24.90;97.50;;;;;;5071363;28;20027;-76
2022/07/13 01:59:51;;;;;;;6.75;2.80;;;24.70;97.90;;;;;;5063710;28;20477;-76
2022/07/13 02:02:17;;;;;;;15.43;3.22;;;24.80;97.90;;;;;;5064958;28;20060;-76
2022/07/13 02:04:43;;;;;;;4.25;2.80;;;24.70;98.00;;;;;;5054381;28;20032;-76
2022/07/13 02:07:09;;;;;;;4.47;2.83;;;24.80;97.90;;;;;;5072883;28;20028;-76
2022/07/13 02:09:35;;;;;;;12.73;3.40;;;24.80;97.60;;;;;;5072272;28;20438;-76
2022/07/13 02:12:01;;;;;;;6.50;2.58;;;24.70;98.00;;;;;;5072941;28;20024;-76
2022/07/13 02:14:26;;;;;;;6.05;2.85;;;25.00;97.60;;;;;;5072435;28;20027;-77
2022/07/13 02:16:52;;;;;;;7.93;2.80;;;25.00;97.70;;;;;;5072369;28;20036;-76
2022/07/13 02:19:18;;;;;;;5.05;2.67;;;25.20;97.60;;;;;;5070996;28;20020;-76
2022/07/13 02:21:46;;;;;;;7.65;2.80;;;25.00;97.70;;;;;;5072449;28;20029;-76
2022/07/13 02:24:11;;;;;;;6.20;2.50;;;25.20;97.50;;;;;;5072613;28;20036;-76
2022/07/13 02:26:39;;;;;;;6.55;3.00;;;25.20;97.30;;;;;;5071527;28;20362;-76
2022/07/13 02:29:07;;;;;;;5.72;2.63;;;25.10;97.50;;;;;;5071067;28;20077;-76
2022/07/13 02:31:34;;;;;;;4.57;2.45;;;24.90;97.90;;;;;;5072094;28;20490;-76
2022/07/13 02:34:02;;;;;;;11.63;2.90;;;24.60;98.50;;;;;;5055016;28;20047;-76
2022/07/13 02:36:28;;;;;;;4.90;2.50;;;24.60;98.50;;;;;;5071325;28;20025;-76
2022/07/13 02:38:54;;;;;;;5.78;2.55;;;24.50;98.60;;;;;;5074864;28;20035;-76
2022/07/13 02:41:19;;;;;;;8.43;2.67;;;24.70;98.10;;;;;;5075291;28;20076;-76
2022/07/13 02:43:49;;;;;;;7.93;2.72;;;24.70;98.10;;;;;;5075084;28;20408;-76
2022/07/13 02:46:14;;;;;;;7.60;2.60;;;24.30;98.50;;;;;;5074902;28;20036;-76
2022/07/13 02:48:40;;;;;;;4.15;2.67;;;24.10;99.10;;;;;;5074429;28;20035;-77
2022/07/13 02:51:06;;;;;;;13.45;2.95;;;24.20;99.00;;;;;;5076277;28;20365;-76
2022/07/13 02:53:32;;;;;;;7.03;2.78;;;24.60;98.70;;;;;;5076175;28;20020;-76
2022/07/13 02:55:58;;;;;;;4.00;2.50;;;24.60;98.30;;;;;;5074949;28;20025;-76
2022/07/13 02:58:25;;;;;;;7.55;2.20;;;24.70;98.20;;;;;;5058344;28;20020;-76
2022/07/13 03:00:52;;;;;;;4.78;2.72;;;24.60;98.20;;;;;;5057357;28;20115;-76
2022/07/13 03:03:18;;;;;;;3.33;2.42;;;24.70;98.10;;;;;;5074878;28;20028;-76
2022/07/13 03:05:46;;;;;;;11.13;2.50;;;24.80;97.70;;;;;;5074406;28;20032;-76
2022/07/13 03:08:12;;;;;;;10.02;2.95;;;24.90;97.10;;;;;;5074714;28;20487;-76
2022/07/13 03:10:37;;;;;;;5.00;2.22;;;24.70;97.40;;;;;;5074226;28;20036;-76
2022/07/13 03:13:03;;;;;;;5.28;2.30;;;24.60;97.60;;;;;;5074479;28;20035;-76
2022/07/13 03:15:31;;;;;;;5.15;2.50;;;24.60;97.60;;;;;;5074158;28;20031;-76
2022/07/13 03:17:57;;;;;;;9.80;2.30;;;24.50;97.40;;;;;;5074395;28;20476;-76
2022/07/13 03:20:23;;;;;;;2.55;1.90;;;24.20;97.70;;;;;;5075848;28;20059;-76
2022/07/13 03:22:49;;;;;;;7.30;2.50;;;24.10;97.90;;;;;;5074027;28;20028;-76
2022/07/13 03:25:16;;;;;;;7.78;2.10;;;24.50;96.90;;;;;;5074335;28;20475;-76
2022/07/13 03:27:42;;;;;;;3.38;2.05;;;24.60;96.90;;;;;;5074501;28;20028;-76
2022/07/13 03:30:09;;;;;;;7.10;2.30;;;24.70;96.40;;;;;;5073718;28;20396;-77
2022/07/13 03:32:34;;;;;;;4.22;2.40;;;24.70;96.20;;;;;;5074324;28;20517;-76
2022/07/13 03:35:00;;;;;;;8.35;2.38;;;24.60;96.30;;;;;;5073730;28;20112;-76
2022/07/13 03:37:27;;;;;;;3.45;2.22;;;24.70;96.00;;;;;;5074138;28;20020;-76
2022/07/13 03:39:54;;;;;;;4.43;2.15;;;24.20;96.40;;;;;;5073851;28;20041;-76
2022/07/13 03:42:21;;;;;;;6.07;2.35;;;24.10;96.70;;;;;;5074314;28;20484;-76
2022/07/13 03:44:48;;;;;;;5.28;1.95;;;24.10;96.40;;;;;;5073420;28;20085;-76
2022/07/13 03:47:14;;;;;;;4.25;1.85;;;24.30;96.10;;;;;;5073973;28;20024;-76
2022/07/13 03:49:40;;;;;;;7.80;1.88;;;24.40;96.10;;;;;;5074383;28;20033;-76
2022/07/13 03:52:06;;;;;;;9.73;2.03;;;24.50;95.80;;;;;;5073723;28;20023;-76
2022/07/13 03:54:32;;;;;;;3.05;2.13;;;24.60;95.90;;;;;;5073838;28;20081;-76
2022/07/13 03:56:58;;;;;;;7.78;2.45;;;24.80;95.20;;;;;;5073504;28;20063;-76
2022/07/13 03:59:24;;;;;;;10.70;2.35;;;24.50;95.90;;;;;;5069016;28;20024;-76
2022/07/13 04:01:50;;;;;;;9.95;2.22;;;24.50;96.10;;;;;;5063080;28;20024;-76
2022/07/13 04:04:16;;;;;;;8.15;2.08;;;24.30;96.20;;;;;;5073233;28;20480;-76
2022/07/13 04:06:43;;;;;;;2.20;1.88;;;24.20;96.50;;;;;;5056728;28;20020;-76
2022/07/13 04:09:09;;;;;;;4.90;1.83;;;24.40;96.90;;;;;;5072836;28;20035;-76
2022/07/13 04:11:35;;;;;;;5.45;2.20;;;24.40;96.10;;;;;;5073347;28;20028;-76
2022/07/13 04:14:00;;;;;;;5.72;2.08;;;24.60;95.70;;;;;;5073133;28;20051;-76
2022/07/13 04:16:27;;;;;;;5.35;1.90;;;24.70;96.10;;;;;;5068825;28;20017;-76
2022/07/13 04:18:53;;;;;;;9.88;2.17;;;25.00;95.00;;;;;;5073057;28;20127;-76
2022/07/13 04:21:19;;;;;;;3.85;1.80;;;24.90;94.70;;;;;;5072946;28;20076;-76
2022/07/13 04:23:45;;;;;;;5.00;2.30;;;24.60;96.90;;;;;;5073322;28;20028;-76
2022/07/13 04:26:10;;;;;;;5.03;1.92;;;24.70;96.60;;;;;;5073006;28;20074;-76
2022/07/13 04:28:36;;;;;;;4.35;1.88;;;24.60;96.30;;;;;;5072949;28;20110;-76
2022/07/13 04:31:04;;;;;;;7.05;1.98;;;24.60;96.30;;;;;;5072883;28;20017;-76
2022/07/13 04:33:33;;;;;;;6.05;2.22;;;25.00;95.70;;;;;;5072985;28;20024;-76
2022/07/13 04:35:59;;;;;;;6.60;2.33;;;25.20;95.40;;;;;;5072928;28;20468;-76
2022/07/13 04:38:25;;;;;;;8.68;2.30;;;25.00;94.70;;;;;;5072825;28;20051;-76
2022/07/13 04:40:51;;;;;;;2.72;1.75;;;24.90;95.50;;;;;;5056229;28;20472;-76
2022/07/13 04:43:17;;;;;;;14.95;2.30;;;24.80;95.50;;;;;;5072571;28;20035;-76
2022/07/13 04:45:43;;;;;;;5.97;2.22;;;25.00;95.30;;;;;;5072766;28;20093;-76
2022/07/13 04:48:09;;;;;;;7.00;1.88;;;24.90;95.20;;;;;;5072613;28;20499;-76
2022/07/13 04:50:35;;;;;;;4.78;2.17;;;24.70;95.30;;;;;;5056143;28;20024;-76
2022/07/13 04:53:02;;;;;;;4.13;2.17;;;24.50;95.30;;;;;;5072524;28;20034;-76
2022/07/13 04:55:28;;;;;;;2.58;1.67;;;24.40;96.10;;;;;;5072585;28;20016;-76
2022/07/13 04:57:55;;;;;;;5.82;2.10;;;24.40;97.10;;;;;;5072427;28;20021;-76
2022/07/13 05:00:22;;;;;;;7.72;1.90;;;24.30;96.70;;;;;;5060645;28;20047;-76
2022/07/13 05:02:47;;;;;;;8.85;2.05;;;24.40;97.10;;;;;;5070172;28;20040;-76
2022/07/13 05:05:13;;;;;;;6.78;2.10;;;24.60;96.90;;;;;;5072312;28;20492;-76
2022/07/13 05:07:39;;;;;;;10.18;2.72;;;24.60;97.00;;;;;;5073268;28;20103;-76
2022/07/13 05:10:08;;;;;;;3.78;2.15;;;24.80;96.50;;;;;;5072351;28;20114;-76
2022/07/13 05:12:40;;;;;;;8.45;2.60;;;24.90;96.60;;;;;;5071712;28;20033;-76
2022/07/13 05:15:09;;;;;;;7.63;2.00;;;24.70;96.60;;;;;;5073485;28;20038;-76
2022/07/13 05:17:36;;;;;;;10.90;2.30;;;24.70;96.80;;;;;;5071966;28;20419;-76
2022/07/13 05:20:04;;;;;;;7.50;2.47;;;25.00;96.60;;;;;;5071869;28;20032;-76
2022/07/13 05:22:33;;;;;;;10.35;3.25;;;25.20;95.20;;;;;;5072135;28;20036;-76
2022/07/13 05:24:59;;;;;;;7.25;2.40;;;24.90;95.80;;;;;;5071567;28;20535;-76
2022/07/13 05:27:25;;;;;;;6.22;2.20;;;24.50;96.90;;;;;;5053239;28;20496;-76
2022/07/13 05:29:53;;;;;;;10.27;2.10;;;24.40;97.10;;;;;;5071883;28;20032;-76
2022/07/13 05:32:20;;;;;;;19.85;2.42;;;24.40;97.60;;;;;;5071725;28;20024;-76
2022/07/13 05:34:46;;;;;;;4.63;2.13;;;24.70;97.30;;;;;;5072962;28;20033;-76
2022/07/13 05:37:12;;;;;;;7.20;2.83;;;24.60;96.90;;;;;;5071584;28;20082;-76
2022/07/13 05:39:45;;;;;;;10.27;2.72;;;24.60;97.30;;;;;;5071539;28;20119;-76
2022/07/13 05:42:12;;;;;;;11.30;3.10;;;24.70;97.30;;;;;;5044027;28;20070;-76
2022/07/13 05:44:38;;;;;;;10.77;3.10;;;24.70;97.20;;;;;;5071709;28;20055;-76
2022/07/13 05:47:05;;;;;;;8.23;2.97;;;24.20;97.60;;;;;;5071537;28;20021;-76
2022/07/13 05:49:30;;;;;;;16.15;3.95;;;24.20;98.10;;;;;;5071407;28;20029;-76
2022/07/13 05:51:57;;;;;;;8.95;3.10;;;24.20;98.30;;;;;;5071505;28;20036;-76
2022/07/13 05:54:24;;;;;;;12.80;3.28;;;24.20;98.20;;;;;;5071320;28;20028;-76
2022/07/13 05:56:50;;;;;;;9.20;3.40;;;23.90;99.20;;;;;;5071426;28;20549;-76
2022/07/13 05:59:15;;;;;;;9.95;3.60;;;23.90;99.50;;;;;;5069533;28;20032;-76
2022/07/13 06:01:41;;;;;;;12.40;4.18;;;24.20;99.10;;;;;;5061675;28;20114;-76
2022/07/13 06:04:07;;;;;;;11.15;3.95;;;23.90;99.90;;;;;;5072495;28;20038;-76
2022/07/13 06:06:33;;;;;;;10.50;3.53;;;23.70;99.90;;;;;;5072815;28;20029;-76
2022/07/13 06:08:59;;;;;;;10.60;4.05;;;23.70;99.90;;;;;;5071984;28;20028;-76
2022/07/13 06:11:25;;;;;;;18.15;3.83;;;23.80;99.90;;;;;;5072433;28;20056;-76
2022/07/13 06:13:50;;;;;;;6.72;4.18;;;24.20;99.90;;;;;;5072822;28;20115;-76
2022/07/13 06:16:16;;;;;;;14.30;5.20;;;24.10;99.90;;;;;;5072478;28;20028;-76
2022/07/13 06:18:42;;;;;;;8.73;4.93;;;24.30;99.90;;;;;;5072533;28;20428;-75
2022/07/13 06:21:08;;;;;;;7.90;4.78;;;24.20;99.90;;;;;;5072433;28;20032;-76
2022/07/13 06:23:34;;;;;;;8.95;5.13;;;23.90;99.90;;;;;;5063919;28;20465;-76
2022/07/13 06:25:59;;;;;;;10.98;5.43;;;24.20;99.90;;;;;;5056755;28;20037;-76
2022/07/13 06:28:25;;;;;;;20.85;5.93;;;24.60;99.90;;;;;;5056834;28;20017;-76
2022/07/13 06:30:51;;;;;;;11.23;5.55;;;24.70;99.90;;;;;;5067163;28;20028;-76
2022/07/13 06:33:16;;;;;;;15.07;5.68;;;25.00;99.90;;;;;;5054650;28;20059;-75
2022/07/13 06:35:42;;;;;;;13.48;4.90;;;25.10;99.90;;;;;;5057618;28;20096;-76
2022/07/13 06:38:08;;;;;;;19.60;6.05;;;24.60;99.90;;;;;;5055877;28;20411;-75
2022/07/13 06:40:34;;;;;;;20.85;5.65;;;24.60;99.90;;;;;;5055753;28;20021;-75
2022/07/13 06:43:00;;;;;;;11.15;5.50;;;24.50;99.90;;;;;;5053357;28;20044;-75
2022/07/13 06:45:26;;;;;;;11.93;5.78;;;24.50;99.90;;;;;;5057109;28;20393;-75
2022/07/13 06:47:52;;;;;;;9.98;5.25;;;24.20;99.90;;;;;;5047129;28;20030;-74
2022/07/13 06:50:18;;;;;;;10.05;5.68;;;24.30;99.90;;;;;;5054007;28;20033;-75
2022/07/13 06:52:44;;;;;;;18.15;5.75;;;24.20;99.90;;;;;;5054713;28;20025;-74
2022/07/13 06:55:11;;;;;;;14.38;6.28;;;24.10;99.90;;;;;;5052013;28;20036;-75
2022/07/13 06:57:37;;;;;;;10.57;5.75;;;24.20;99.90;;;;;;5058411;28;20465;-75
2022/07/13 07:00:05;;;;;;;12.02;5.70;;;24.30;99.90;;;;;;5056882;28;20061;-76
2022/07/13 07:02:30;;;;;;;17.88;5.82;;;24.40;99.90;;;;;;5071568;28;20017;-76
2022/07/13 07:04:56;;;;;;;19.35;5.95;;;24.60;99.90;;;;;;5070622;28;20389;-75
2022/07/13 07:07:22;;;;;;;16.27;5.90;;;24.60;99.90;;;;;;5063946;28;20489;-74
2022/07/13 07:09:48;;;;;;;12.05;6.15;;;24.70;99.90;;;;;;5051406;28;20489;-74
2022/07/13 07:12:14;;;;;;;17.90;6.53;;;24.90;99.90;;;;;;5058425;28;20024;-76
2022/07/13 07:14:40;;;;;;;11.13;6.13;;;25.00;99.90;;;;;;5054726;28;20024;-74
2022/07/13 07:17:06;;;;;;;10.95;6.18;;;25.00;99.90;;;;;;5051596;28;20492;-74
2022/07/13 07:19:32;;;;;;;7.65;5.05;;;25.10;99.90;;;;;;5059866;28;20108;-74
2022/07/13 07:21:57;;;;;;;11.05;5.30;;;25.20;99.90;;;;;;5058267;28;20468;-76
2022/07/13 07:24:23;;;;;;;18.92;5.28;;;25.50;99.90;;;;;;5056287;28;20107;-76
2022/07/13 07:26:49;;;;;;;10.07;4.72;;;25.40;99.90;;;;;;5057263;28;20481;-75
2022/07/13 07:29:15;;;;;;;11.27;4.47;;;25.60;99.90;;;;;;5054711;28;20059;-75
2022/07/13 07:31:41;;;;;;;12.77;4.97;;;25.40;99.90;;;;;;5062596;28;20532;-76
2022/07/13 07:34:07;;;;;;;11.45;5.43;;;25.30;99.90;;;;;;5062591;28;20025;-76
2022/07/13 07:36:33;;;;;;;14.95;4.90;;;25.70;99.90;;;;;;5055062;28;20025;-75
2022/07/13 07:38:59;;;;;;;8.95;5.22;;;25.50;99.90;;;;;;5055807;28;20362;-76
2022/07/13 07:41:24;;;;;;;11.45;4.28;;;25.70;99.90;;;;;;5052881;28;20029;-76
2022/07/13 07:43:50;;;;;;;6.43;3.40;;;25.50;99.90;;;;;;5053676;28;20497;-76
2022/07/13 07:46:16;;;;;;;13.88;4.57;;;25.50;99.90;;;;;;5054956;28;20037;-75
2022/07/13 07:48:42;;;;;;;11.73;4.38;;;25.50;99.90;;;;;;5054160;28;20025;-75
2022/07/13 07:51:08;;;;;;;10.60;3.00;;;25.40;99.90;;;;;;5054881;28;20036;-76
2022/07/13 07:53:34;;;;;;;9.82;3.35;;;25.80;99.90;;;;;;5054877;28;20033;-75
2022/07/13 07:55:59;;;;;;;7.70;3.75;;;26.00;99.90;;;;;;5054931;28;20025;-75
2022/07/13 07:58:25;;;;;;;7.55;3.25;;;25.60;99.90;;;;;;5054781;28;20120;-75
2022/07/13 08:00:51;;;;;;;5.72;3.40;;;25.40;99.90;;;;;;5055234;28;20125;-75
2022/07/13 08:03:17;;;;;;;6.20;3.55;;;25.20;99.90;;;;;;5074966;28;20365;-75
2022/07/13 08:05:48;;;;;;;13.15;3.00;;;25.20;99.90;;;;;;5074490;28;20040;-76
2022/07/13 08:08:14;;;;;;;4.68;2.70;;;25.30;99.90;;;;;;5074727;28;20078;-76
2022/07/13 08:10:40;;;;;;;8.50;3.47;;;25.50;99.90;;;;;;5074642;28;20388;-75
2022/07/13 08:13:06;;;;;;;3.13;1.90;;;25.60;99.90;;;;;;5074662;28;20013;-75
2022/07/13 08:15:32;;;;;;;3.03;2.28;;;25.80;99.90;;;;;;5074700;28;20054;-76
2022/07/13 08:17:58;;;;;;;7.70;2.00;;;25.60;99.90;;;;;;5073595;28;20043;-76
2022/07/13 08:20:24;;;;;;;8.40;2.38;;;25.80;99.90;;;;;;5073993;28;20473;-73
2022/07/13 08:22:51;;;;;;;4.97;1.80;;;25.90;99.90;;;;;;5074271;28;20039;-75
2022/07/13 08:25:17;;;;;;;4.85;2.15;;;25.90;99.90;;;;;;5073245;28;20086;-75
2022/07/13 08:27:43;;;;;;;7.55;2.17;;;25.80;99.80;;;;;;5074404;28;20078;-75
2022/07/13 08:30:11;;;;;;;3.63;2.10;;;26.10;99.60;;;;;;5074056;28;20024;-75
2022/07/13 08:32:40;;;;;;;6.70;1.90;;;26.30;99.80;;;;;;5073205;28;20041;-74
2022/07/13 08:40:42;;;;;;;3.40;1.95;;;26.80;98.60;;;;;;5048434;28;20106;-76
2022/07/13 08:43:08;;;;;;;3.15;1.77;;;26.40;99.10;;;;;;5072906;28;20058;-75
2022/07/13 08:45:35;;;;;;;17.33;2.20;;;26.50;98.80;;;;;;5045752;28;20028;-75
2022/07/13 08:48:06;;;;;;;2.80;1.50;;;26.40;98.80;;;;;;5073549;28;20036;-75
2022/07/13 08:50:32;;;;;;;7.22;2.00;;;26.90;98.20;;;;;;5062045;28;20145;-76
2022/07/13 08:52:59;;;;;;;14.00;1.80;;;26.90;98.40;;;;;;5073852;28;20028;-75
2022/07/13 08:55:25;;;;;;;5.55;1.65;;;27.00;98.70;;;;;;5073640;28;20035;-76
2022/07/13 08:57:51;;;;;;;4.05;1.80;;;27.10;97.90;;;;;;5073645;28;20028;-76
2022/07/13 09:00:21;;;;;;;4.03;1.95;;;26.80;98.00;;;;;;5061166;28;20036;-75
2022/07/13 09:02:48;;;;;;;7.18;1.88;;;26.80;98.40;;;;;;5070991;28;20431;-76
2022/07/13 09:05:14;;;;;;;8.40;2.10;;;26.70;98.10;;;;;;5072427;28;20039;-75
2022/07/13 09:07:40;;;;;;;7.65;2.15;;;26.50;97.80;;;;;;5073258;28;20449;-76
2022/07/13 09:10:06;;;;;;;3.63;2.95;;;26.60;98.70;;;;;;5072179;28;20105;-76
2022/07/13 09:12:32;;;;;;;3.10;1.80;;;26.40;98.50;;;;;;5073375;28;20035;-76
2022/07/13 09:15:06;;;;;;;7.63;1.92;;;26.40;98.60;;;;;;5073492;28;20021;-76
2022/07/13 09:17:47;;;;;;;4.05;2.10;;;26.70;98.70;;;;;;5073018;28;20033;-76
2022/07/13 09:20:13;;;;;;;2.97;1.70;;;27.20;97.00;;;;;;5072078;28;20051;-76
2022/07/13 09:22:58;;;;;;;2.75;1.80;;;27.60;96.30;;;;;;5073359;28;20039;-76
2022/07/13 09:25:37;;;;;;;6.55;1.77;;;28.00;96.20;;;;;;5056809;28;20033;-76
2022/07/13 09:28:08;;;;;;;5.53;1.80;;;28.40;96.20;;;;;;5068637;28;20060;-75
2022/07/13 09:30:35;;;;;;;4.53;1.85;;;27.60;96.10;;;;;;5073060;28;20377;-75
2022/07/13 09:33:01;;;;;;;6.35;1.90;;;27.90;96.20;;;;;;5072836;28;20103;-76
2022/07/13 09:35:45;;;;;;;5.70;1.80;;;28.20;95.70;;;;;;5071795;28;20078;-75
2022/07/13 09:38:36;;;;;;;3.88;1.73;;;28.10;95.00;;;;;;5072992;28;20033;-76
2022/07/13 09:41:17;;;;;;;8.73;1.60;;;28.20;95.50;;;;;;5073249;28;20522;-76
2022/07/13 09:46:56;;;;;;;7.35;1.95;;;28.00;95.80;;;;;;5070853;28;20325;-76
2022/07/13 09:49:40;;;;;;;3.22;2.15;;;27.80;95.90;;;;;;5072775;28;20147;-75
2022/07/13 09:52:11;;;;;;;3.22;1.60;;;28.30;95.80;;;;;;5071685;28;20485;-76
2022/07/13 09:54:39;;;;;;;5.30;2.00;;;28.50;95.20;;;;;;5054816;28;20062;-75
2022/07/13 09:57:08;;;;;;;3.05;1.35;;;27.80;95.40;;;;;;5072762;28;20031;-74
2022/07/13 09:59:35;;;;;;;6.30;2.47;;;28.00;92.90;;;;;;5067220;28;20020;-76
2022/07/13 10:02:03;;;;;;;2.90;1.67;;;28.00;94.00;;;;;;5064156;28;20039;-75
2022/07/13 10:04:30;;;;;;;3.03;1.73;;;28.70;94.20;;;;;;5072495;28;20032;-76
2022/07/13 10:06:56;;;;;;;6.10;1.77;;;28.70;94.00;;;;;;5072667;28;20086;-76
2022/07/13 10:09:29;;;;;;;5.88;2.15;;;29.00;93.20;;;;;;5072476;28;20044;-75
2022/07/13 10:11:56;;;;;;;6.78;1.70;;;28.30;93.00;;;;;;5072811;28;20062;-75
2022/07/13 10:14:23;;;;;;;8.18;1.85;;;28.00;93.50;;;;;;5072550;28;20064;-76
2022/07/13 10:16:52;;;;;;;3.63;1.83;;;28.70;93.20;;;;;;5072309;28;20140;-76
2022/07/13 10:19:19;;;;;;;4.93;1.80;;;28.70;92.90;;;;;;5070879;28;20028;-76
2022/07/13 10:22:09;;;;;;;5.78;1.85;;;29.20;93.20;;;;;;5071364;28;20254;-76
2022/07/13 10:24:36;;;;;;;5.55;1.60;;;29.40;92.50;;;;;;5072302;28;20044;-76
2022/07/13 10:27:30;;;;;;;4.28;1.98;;;29.50;92.60;;;;;;5072584;28;20480;-76
2022/07/13 10:30:07;;;;;;;6.78;2.17;;;29.70;92.50;;;;;;5070762;28;20494;-76
2022/07/13 10:32:37;;;;;;;6.10;2.08;;;28.90;92.70;;;;;;5072522;28;20032;-76
2022/07/13 10:35:04;;;;;;;4.55;1.98;;;29.30;92.90;;;;;;5071056;28;20489;-76
2022/07/13 10:37:56;;;;;;;5.72;2.20;;;29.50;92.90;;;;;;5072394;28;20099;-76
2022/07/13 10:40:23;;;;;;;4.88;2.17;;;29.60;92.60;;;;;;5063000;28;20044;-76
2022/07/13 10:42:56;;;;;;;2.90;2.10;;;30.10;92.50;;;;;;5071347;28;20032;-76
2022/07/13 10:45:35;;;;;;;5.55;2.15;;;29.90;92.60;;;;;;5071915;28;20051;-76
2022/07/13 10:48:04;;;;;;;3.88;2.30;;;30.50;91.90;;;;;;5072459;28;20060;-76
2022/07/13 10:50:36;;;;;;;5.20;2.50;;;29.60;92.10;;;;;;5070836;28;20480;-76
2022/07/13 10:53:02;;;;;;;17.27;3.17;;;29.30;92.20;;;;;;5071253;28;20051;-76
2022/07/13 10:55:35;;;;;;;6.05;2.60;;;29.70;92.30;;;;;;5072099;28;20634;-77
2022/07/13 10:58:32;;;;;;;6.30;2.17;;;30.00;92.10;;;;;;5072105;28;20033;-77
2022/07/13 11:01:21;;;;;;;4.30;2.30;;;30.60;92.20;;;;;;5055499;28;20492;-76
2022/07/13 11:03:48;;;;;;;7.88;2.40;;;31.20;91.40;;;;;;5075929;28;20025;-77
2022/07/13 11:06:23;;;;;;;6.68;2.20;;;31.60;91.10;;;;;;5074794;28;20408;-77
2022/07/13 11:09:15;;;;;;;5.50;3.40;;;31.70;91.10;;;;;;5074490;28;20123;-77
2022/07/13 11:11:45;;;;;;;2.55;1.60;;;32.20;90.50;;;;;;5076064;28;20024;-77
2022/07/13 11:14:38;;;;;;;4.00;1.80;;;31.70;90.60;;;;;;5075718;28;20515;-76
2022/07/13 11:17:21;;;;;;;2.67;1.25;;;31.60;90.50;;;;;;5054688;28;20024;-76
2022/07/13 11:20:00;;;;;;;5.85;1.80;;;31.60;90.30;;;;;;5075107;28;20481;-76
2022/07/13 11:25:23;;;;;;;8.43;1.92;;;31.30;90.80;;;;;;5049431;28;20032;-76
2022/07/13 11:28:13;;;;;;;7.35;1.73;;;31.50;90.30;;;;;;5075422;28;20020;-76
2022/07/13 11:30:43;;;;;;;7.38;2.20;;;31.30;90.90;;;;;;5053782;28;20032;-76
2022/07/13 11:33:12;;;;;;;6.50;2.00;;;31.40;90.60;;;;;;5075393;28;20029;-76
2022/07/13 11:35:44;;;;;;;2.03;1.77;;;31.50;90.80;;;;;;5075349;28;20039;-76
2022/07/13 11:38:11;;;;;;;6.15;2.03;;;30.60;91.00;;;;;;5075230;28;20502;-76
2022/07/13 11:40:37;;;;;;;8.00;1.75;;;30.40;91.10;;;;;;5073865;28;20106;-76
2022/07/13 11:43:03;;;;;;;5.78;1.50;;;30.10;91.20;;;;;;5075205;28;20062;-76
2022/07/13 11:45:31;;;;;;;7.47;1.80;;;30.00;91.10;;;;;;5075027;28;20511;-76
2022/07/13 11:48:05;;;;;;;3.35;1.58;;;29.60;90.90;;;;;;5075080;28;20495;-76
2022/07/13 11:50:48;;;;;;;5.30;1.92;;;29.90;90.90;;;;;;5074848;28;20024;-76
2022/07/13 11:53:28;;;;;;;5.85;1.38;;;29.80;91.00;;;;;;5075329;28;20084;-76
2022/07/13 11:56:06;;;;;;;4.05;1.30;;;30.20;91.50;;;;;;5049129;28;20032;-76
2022/07/13 11:58:33;;;;;;;3.08;1.23;;;30.50;90.60;;;;;;5073508;28;20460;-76
2022/07/13 12:01:00;;;;;;;3.58;1.30;;;30.80;90.60;;;;;;5060910;28;20021;-76
2022/07/13 12:03:34;;;;;;;5.03;1.15;;;31.30;88.30;;;;;;5075037;28;20021;-76
2022/07/13 12:06:09;;;;;;;7.03;1.48;;;31.60;88.60;;;;;;5074503;28;20054;-76
2022/07/13 12:08:42;;;;;;;4.18;1.48;;;31.10;88.10;;;;;;5073452;28;20028;-76
2022/07/13 12:11:12;;;;;;;6.18;1.42;;;31.10;90.00;;;;;;5073853;28;20465;-75
2022/07/13 12:13:40;;;;;;;2.80;1.42;;;31.80;88.00;;;;;;5074779;28;20024;-76
2022/07/13 12:16:09;;;;;;;3.80;1.50;;;31.20;88.20;;;;;;5074690;28;20020;-76
2022/07/13 12:18:57;;;;;;;6.93;1.55;;;31.30;88.70;;;;;;5074622;28;20027;-75
2022/07/13 12:21:23;;;;;;;2.28;1.25;;;31.20;87.70;;;;;;5074547;28;20040;-76
2022/07/13 12:23:49;;;;;;;6.03;1.20;;;30.50;89.70;;;;;;5074402;28;20040;-76
2022/07/13 12:26:15;;;;;;;2.72;1.35;;;30.50;89.90;;;;;;5073988;28;20032;-76
2022/07/13 12:28:42;;;;;;;3.67;1.30;;;30.20;90.00;;;;;;5074404;28;20024;-75
2022/07/13 12:31:09;;;;;;;2.88;1.60;;;29.70;89.30;;;;;;5074604;28;20419;-76
2022/07/13 12:33:46;;;;;;;2.75;1.50;;;29.60;90.00;;;;;;5074439;28;20071;-76
2022/07/13 12:36:13;;;;;;;6.68;1.70;;;29.40;90.60;;;;;;5074488;28;20358;-76
2022/07/13 12:38:55;;;;;;;7.90;1.67;;;29.30;90.20;;;;;;5074010;28;20111;-76
2022/07/13 12:41:32;;;;;;;4.85;1.42;;;29.10;90.60;;;;;;5073869;28;20031;-76
2022/07/13 12:44:00;;;;;;;4.20;1.52;;;29.20;90.60;;;;;;5039962;28;20079;-75
2022/07/13 12:46:42;;;;;;;7.05;1.85;;;29.30;91.40;;;;;;5065995;28;20045;-76
2022/07/13 12:49:08;;;;;;;4.78;2.10;;;29.80;91.20;;;;;;5073761;28;20103;-76
2022/07/13 12:51:51;;;;;;;4.38;1.50;;;30.20;90.60;;;;;;5072648;28;20457;-76
2022/07/13 12:54:37;;;;;;;3.50;1.52;;;30.00;89.80;;;;;;5049528;28;20029;-76
2022/07/13 12:57:09;;;;;;;4.95;2.22;;;29.80;90.10;;;;;;5073904;28;20032;-76
2022/07/13 12:59:35;;;;;;;6.57;1.30;;;29.40;90.00;;;;;;5067053;28;20021;-76
2022/07/13 13:02:00;;;;;;;5.63;2.33;;;30.00;90.10;;;;;;5065181;28;20476;-76